createdAt,value
2018-12-01T00:03:02.953Z,82.4
2018-12-01T00:08:03.736Z,82.2
2018-12-01T00:12:28.158Z,82.0
2018-12-01T00:17:29.325Z,82.5
2018-12-01T00:22:28.564Z,82.5
2018-12-01T00:27:28.361Z,82.5
2018-12-01T00:32:28.034Z,82.3
2018-12-01T00:37:27.922Z,82.2
2018-12-01T00:42:28.697Z,82.3
2018-12-01T00:47:28.069Z,82.4
2018-12-01T00:52:27.531Z,82.2
2018-12-01T00:57:28.125Z,82.1
2018-12-01T01:02:28.222Z,82.3
2018-12-01T01:07:28.723Z,82.2
2018-12-01T01:12:28.415Z,82.3
2018-12-01T01:17:30.449Z,82.4
2018-12-01T01:22:28.049Z,82.4
2018-12-01T01:27:28.599Z,82.4
2018-12-01T01:32:27.958Z,82.5
2018-12-01T01:37:28.904Z,82.6
2018-12-01T01:42:28.253Z,82.9
2018-12-01T01:47:28.317Z,82.7
2018-12-01T01:52:28.533Z,82.2
2018-12-01T01:57:28.066Z,82.2
2018-12-01T02:02:28.819Z,82.3
2018-12-01T02:07:28.569Z,81.7
2018-12-01T02:12:28.150Z,81.7
2018-12-01T02:17:29.119Z,81.6
2018-12-01T02:22:28.260Z,81.2
2018-12-01T02:27:29.158Z,81.6
2018-12-01T02:32:27.650Z,81.4
2018-12-01T02:37:30.072Z,81.4
2018-12-01T02:42:27.658Z,81.1
2018-12-01T02:47:28.496Z,81.0
2018-12-01T02:52:28.304Z,81.0
2018-12-01T02:57:27.697Z,81.2
2018-12-01T03:02:27.952Z,80.9
2018-12-01T03:07:28.506Z,80.8
2018-12-01T03:12:28.513Z,80.7
2018-12-01T03:17:28.542Z,80.8
2018-12-01T03:22:29.159Z,81.2
2018-12-01T03:27:27.551Z,81.5
2018-12-01T03:32:28.153Z,81.3
2018-12-01T03:37:28.320Z,81.2
2018-12-01T03:42:28.720Z,80.5
2018-12-01T03:47:28.499Z,80.9
2018-12-01T03:52:28.711Z,80.9
2018-12-01T03:57:28.642Z,80.5
2018-12-01T04:02:29.096Z,80.7
2018-12-01T04:07:28.495Z,80.8
2018-12-01T04:12:28.592Z,80.7
2018-12-01T04:17:29.263Z,80.6
2018-12-01T04:22:28.264Z,80.4
2018-12-01T04:27:27.687Z,80.4
2018-12-01T04:32:28.728Z,80.5
2018-12-01T04:37:28.379Z,80.4
2018-12-01T04:42:28.294Z,80.2
2018-12-01T04:47:28.424Z,80.2
2018-12-01T04:52:30.078Z,80.2
2018-12-01T04:57:29.055Z,80.3
2018-12-01T05:02:28.313Z,80.1
2018-12-01T05:07:28.862Z,80.0
2018-12-01T05:12:28.871Z,79.7
2018-12-01T05:17:28.934Z,80.0
2018-12-01T05:22:28.318Z,80.1
2018-12-01T05:27:28.113Z,79.9
2018-12-01T05:32:29.578Z,79.7
2018-12-01T05:37:28.289Z,79.8
2018-12-01T05:42:28.497Z,79.6
2018-12-01T05:47:28.816Z,80.0
2018-12-01T05:52:29.034Z,79.9
2018-12-01T05:57:28.307Z,79.8
2018-12-01T06:02:28.879Z,79.3
2018-12-01T06:07:29.073Z,79.4
2018-12-01T06:12:28.847Z,79.7
2018-12-01T06:17:28.694Z,79.9
2018-12-01T06:22:28.587Z,79.8
2018-12-01T06:27:28.644Z,79.6
2018-12-01T06:32:29.371Z,79.6
2018-12-01T06:37:29.363Z,79.6
2018-12-01T06:42:28.915Z,79.6
2018-12-01T06:47:30.609Z,79.7
2018-12-01T06:52:29.247Z,79.6
2018-12-01T06:57:29.456Z,79.4
2018-12-01T07:02:28.348Z,79.5
2018-12-01T07:07:28.905Z,79.2
2018-12-01T07:12:29.082Z,79.1
2018-12-01T07:17:29.039Z,79.3
2018-12-01T07:22:28.762Z,79.4
2018-12-01T07:27:28.501Z,79.6
2018-12-01T07:32:28.533Z,79.5
2018-12-01T07:37:29.292Z,79.5
2018-12-01T07:42:29.255Z,79.1
2018-12-01T07:47:30.218Z,78.8
2018-12-01T07:52:28.377Z,78.9
2018-12-01T07:57:28.925Z,79.2
2018-12-01T08:02:29.159Z,79.0
2018-12-01T08:07:29.037Z,79.1
2018-12-01T08:12:29.662Z,78.8
2018-12-01T08:17:29.307Z,78.5
2018-12-01T08:22:29.355Z,78.5
2018-12-01T08:27:29.057Z,77.8
2018-12-01T08:32:28.931Z,77.9
2018-12-01T08:37:29.138Z,78.0
2018-12-01T08:42:29.011Z,78.0
2018-12-01T08:47:29.390Z,77.7
2018-12-01T08:52:28.646Z,77.5
2018-12-01T08:57:29.774Z,77.4
2018-12-01T09:02:29.174Z,77.2
2018-12-01T09:07:29.041Z,77.8
2018-12-01T09:12:28.581Z,77.7
2018-12-01T09:17:28.827Z,77.8
2018-12-01T09:22:28.570Z,78.0
2018-12-01T09:27:29.122Z,77.3
2018-12-01T09:32:28.823Z,77.4
2018-12-01T09:37:28.345Z,78.2
2018-12-01T09:42:28.522Z,78.0
2018-12-01T09:47:29.625Z,78.0
2018-12-01T09:52:29.088Z,77.8
2018-12-01T09:57:29.118Z,77.9
2018-12-01T10:02:28.727Z,77.9
2018-12-01T10:07:29.374Z,78.0
2018-12-01T10:12:28.618Z,77.9
2018-12-01T10:17:29.121Z,78.0
2018-12-01T10:22:29.121Z,77.8
2018-12-01T10:27:29.259Z,78.1
2018-12-01T10:32:28.391Z,78.0
2018-12-01T10:37:28.609Z,78.4
2018-12-01T10:42:29.542Z,78.4
2018-12-01T10:47:29.891Z,78.9
2018-12-01T10:52:27.932Z,79.1
2018-12-01T10:57:28.935Z,78.8
2018-12-01T11:02:28.904Z,79.2
2018-12-01T11:07:28.520Z,79.8
2018-12-01T11:12:28.466Z,79.9
2018-12-01T11:17:28.975Z,80.0
2018-12-01T11:22:28.643Z,80.2
2018-12-01T11:27:28.385Z,80.3
2018-12-01T11:32:28.513Z,80.1
2018-12-01T11:37:29.332Z,80.1
2018-12-01T11:42:28.883Z,80.0
2018-12-01T11:47:28.966Z,80.2
2018-12-01T11:52:28.600Z,80.9
2018-12-01T11:57:28.507Z,80.9
2018-12-01T12:02:29.270Z,80.8
2018-12-01T12:07:29.543Z,80.9
2018-12-01T12:12:28.691Z,81.3
2018-12-01T12:17:29.212Z,81.3
2018-12-01T12:22:28.534Z,81.4
2018-12-01T12:27:29.044Z,81.4
2018-12-01T12:32:29.012Z,81.4
2018-12-01T12:37:28.927Z,81.4
2018-12-01T12:42:29.063Z,81.6
2018-12-01T12:47:28.520Z,81.4
2018-12-01T12:52:28.665Z,81.6
2018-12-01T12:57:29.574Z,81.2
2018-12-01T13:02:29.212Z,80.9
2018-12-01T13:07:29.758Z,80.8
2018-12-01T13:12:28.845Z,81.1
2018-12-01T13:17:29.107Z,81.1
2018-12-01T13:22:28.770Z,81.3
2018-12-01T13:27:28.619Z,80.7
2018-12-01T13:32:29.166Z,79.6
2018-12-01T13:37:29.061Z,79.6
2018-12-01T13:42:29.514Z,79.8
2018-12-01T13:47:28.805Z,80.3
2018-12-01T13:52:29.147Z,80.6
2018-12-01T13:57:28.905Z,81.3
2018-12-01T14:02:29.165Z,79.6
2018-12-01T14:07:28.802Z,80.6
2018-12-01T14:12:30.325Z,81.3
2018-12-01T14:17:29.402Z,81.6
2018-12-01T14:22:28.891Z,82.3
2018-12-01T14:27:28.844Z,82.9
2018-12-01T14:32:29.798Z,82.5
2018-12-01T14:37:28.202Z,82.5
2018-12-01T14:42:29.107Z,82.7
2018-12-01T14:47:30.445Z,82.7
2018-12-01T14:52:28.286Z,82.7
2018-12-01T14:57:28.431Z,82.7
2018-12-01T15:02:29.205Z,82.8
2018-12-01T15:07:28.610Z,82.6
2018-12-01T15:12:28.258Z,82.6
2018-12-01T15:17:28.941Z,82.6
2018-12-01T15:22:28.439Z,82.7
2018-12-01T15:27:28.951Z,83.0
2018-12-01T15:32:29.527Z,83.0
2018-12-01T15:37:28.358Z,83.2
2018-12-01T15:42:29.191Z,83.2
2018-12-01T15:47:29.541Z,83.2
2018-12-01T15:52:28.592Z,83.1
2018-12-01T15:57:29.319Z,83.0
2018-12-01T16:02:28.905Z,83.0
2018-12-01T16:07:29.243Z,82.8
2018-12-01T16:12:28.562Z,82.7
2018-12-01T16:17:29.067Z,82.6
2018-12-01T16:22:27.984Z,82.5
2018-12-01T16:27:29.013Z,82.5
2018-12-01T16:32:29.464Z,82.4
2018-12-01T16:37:29.332Z,82.3
2018-12-01T16:42:28.848Z,82.2
2018-12-01T16:47:28.208Z,82.2
2018-12-01T16:52:27.999Z,82.2
2018-12-01T16:57:28.163Z,82.1
2018-12-01T17:02:28.112Z,82.0
2018-12-01T17:07:28.750Z,81.9
2018-12-01T17:12:28.231Z,82.1
2018-12-01T17:17:28.882Z,82.0
2018-12-01T17:22:28.720Z,82.1
2018-12-01T17:27:27.877Z,82.1
2018-12-01T17:32:28.519Z,82.1
2018-12-01T17:37:28.340Z,82.0
2018-12-01T17:42:28.353Z,81.9
2018-12-01T17:47:29.181Z,81.9
2018-12-01T17:52:28.469Z,81.9
2018-12-01T17:57:28.194Z,81.8
2018-12-01T18:02:29.388Z,81.7
2018-12-01T18:07:27.778Z,81.7
2018-12-01T18:12:27.991Z,81.6
2018-12-01T18:17:28.811Z,81.5
2018-12-01T18:22:29.196Z,81.6
2018-12-01T18:27:28.596Z,81.6
2018-12-01T18:32:28.578Z,81.6
2018-12-01T18:37:29.085Z,81.6
2018-12-01T18:42:29.170Z,81.5
2018-12-01T18:47:28.230Z,81.4
2018-12-01T18:52:29.010Z,81.5
2018-12-01T18:57:28.211Z,81.5
2018-12-01T19:02:28.557Z,81.5
2018-12-01T19:07:28.729Z,81.6
2018-12-01T19:12:28.838Z,81.6
2018-12-01T19:17:29.458Z,81.7
2018-12-01T19:22:29.874Z,81.6
2018-12-01T19:27:28.460Z,81.6
2018-12-01T19:32:27.972Z,81.6
2018-12-01T19:37:27.997Z,81.5
2018-12-01T19:42:28.573Z,81.5
2018-12-01T19:47:28.667Z,81.5
2018-12-01T19:52:28.142Z,81.5
2018-12-01T19:57:29.043Z,81.3
2018-12-01T20:02:28.774Z,81.3
2018-12-01T20:07:28.662Z,81.3
2018-12-01T20:12:28.634Z,81.4
2018-12-01T20:17:28.411Z,81.3
2018-12-01T20:22:28.914Z,81.2
2018-12-01T20:27:28.427Z,81.3
2018-12-01T20:32:28.578Z,81.2
2018-12-01T20:37:28.193Z,81.3
2018-12-01T20:42:28.205Z,81.2
2018-12-01T20:47:28.156Z,81.3
2018-12-01T20:52:28.030Z,81.3
2018-12-01T20:57:28.809Z,81.4
2018-12-01T21:02:28.348Z,81.4
2018-12-01T21:07:28.854Z,81.5
2018-12-01T21:12:28.212Z,81.5
2018-12-01T21:17:29.111Z,81.6
2018-12-01T21:22:29.333Z,81.8
2018-12-01T21:27:28.532Z,81.8
2018-12-01T21:32:28.604Z,81.9
2018-12-01T21:37:28.463Z,81.8
2018-12-01T21:42:28.453Z,81.8
2018-12-01T21:47:29.095Z,81.8
2018-12-01T21:52:27.778Z,81.9
2018-12-01T21:57:28.212Z,81.9
2018-12-01T22:02:28.186Z,81.9
2018-12-01T22:07:27.897Z,81.9
2018-12-01T22:12:28.116Z,81.6
2018-12-01T22:17:28.864Z,81.6
2018-12-01T22:22:28.989Z,81.5
2018-12-01T22:27:28.187Z,81.5
2018-12-01T22:32:28.095Z,81.4
2018-12-01T22:37:28.476Z,81.3
2018-12-01T22:42:28.159Z,81.4
2018-12-01T22:47:28.338Z,81.3
2018-12-01T22:52:27.450Z,81.4
2018-12-01T22:57:28.399Z,81.3
2018-12-01T23:02:28.598Z,81.4
2018-12-01T23:07:29.316Z,81.3
2018-12-01T23:12:28.394Z,81.4
2018-12-01T23:22:42.428Z,81.2
2018-12-01T23:27:41.130Z,81.3
2018-12-01T23:32:42.197Z,81.5
2018-12-01T23:37:41.354Z,81.6
2018-12-01T23:42:41.087Z,81.5
2018-12-01T23:47:41.096Z,81.5
2018-12-01T23:52:41.133Z,81.6
2018-12-01T23:57:42.120Z,81.6
